Iaciara, Brazil
Current Conditions -  °F | °C
As of 4:00 AM on Saturday 01 Nov 2014 (Local Time) from SBBR Reporting Station
Broken Clouds Broken Clouds  
Wind Chill: 68°   Ceiling: 600
Heat Index: 68°   Visibility: 6mi
Dew Point: 63°   Wind: 5mph
Humidity: 83%   Direction: 30°NNE
Pressure: 30.09"   Gusts: NA
Location:  14.1°S, 46.63°W
Report Text: SBBR 010600Z 03004KT 9999 BKN006 20/17 Q1019
Loading
Personal Weather Stations






























Interactive Weather Map
Tropical Storm Tracking
New forecast layout! Learn more

10-Day Weather Forecast

Advertisements
Track Severe Weather on mobile